Time;durP1;ratioP1;P1;durP2;ratioP2;P2;SDS_P1;SDS_P2;PMS_P1;PMS_P2;Temp;Humidity;BMP_temperature;BMP_pressure;BME280_temperature;BME280_humidity;BME280_pressure;Samples;Min_cycle;Max_cycle;Signal;HPM_P1;HPM_P2
2022/08/01 00:01:58;;;;;;;14.63;9.73;;;18.60;99.90;;;;;;7400045;19;20011;-90
2022/08/01 00:04:23;;;;;;;18.90;11.07;;;18.60;99.90;;;;;;7397412;19;20097;-91
2022/08/01 00:06:49;;;;;;;19.75;11.25;;;18.60;99.90;;;;;;7396239;19;20070;-91
2022/08/01 00:09:15;;;;;;;17.20;10.65;;;18.60;99.90;;;;;;7397421;19;20026;-91
2022/08/01 00:11:42;;;;;;;19.85;10.90;;;18.60;99.90;;;;;;7397158;19;20014;-90
2022/08/01 00:14:09;;;;;;;13.18;8.55;;;18.50;99.90;;;;;;7400413;19;20042;-90
2022/08/01 00:16:35;;;;;;;16.15;9.52;;;18.50;99.90;;;;;;7395413;19;20015;-91
2022/08/01 00:19:01;;;;;;;14.73;8.68;;;18.50;99.90;;;;;;7396625;19;20021;-92
2022/08/01 00:21:27;;;;;;;16.55;9.07;;;18.50;99.90;;;;;;7394013;19;20019;-91
2022/08/01 00:23:56;;;;;;;16.75;8.85;;;18.50;99.90;;;;;;7395205;19;20028;-91
2022/08/01 00:26:22;;;;;;;11.73;7.70;;;18.50;99.90;;;;;;7392486;19;20014;-89
2022/08/01 00:28:47;;;;;;;15.57;7.53;;;18.40;99.90;;;;;;7397302;19;20472;-88
2022/08/01 00:31:13;;;;;;;15.07;7.97;;;18.40;99.90;;;;;;7394957;19;20038;-91
2022/08/01 00:33:39;;;;;;;11.90;7.80;;;18.40;99.90;;;;;;7393410;19;20022;-91
2022/08/01 00:36:05;;;;;;;16.25;8.32;;;18.40;99.90;;;;;;7395062;19;20029;-89
2022/08/01 00:38:31;;;;;;;18.25;8.85;;;18.40;99.90;;;;;;7395711;19;20006;-91
2022/08/01 00:40:57;;;;;;;8.77;6.30;;;18.40;99.90;;;;;;7392591;19;20341;-90
2022/08/01 00:43:22;;;;;;;12.05;6.60;;;18.40;99.90;;;;;;7393360;19;20368;-91
2022/08/01 00:45:48;;;;;;;8.77;5.35;;;18.40;99.90;;;;;;7394477;19;20018;-90
2022/08/01 00:48:14;;;;;;;10.30;5.88;;;18.40;99.90;;;;;;7395929;19;20479;-91
2022/08/01 00:50:40;;;;;;;11.63;6.53;;;18.40;99.90;;;;;;7397326;19;20022;-90
2022/08/01 00:53:07;;;;;;;13.05;7.25;;;18.40;99.90;;;;;;7394458;19;20023;-91
2022/08/01 00:55:34;;;;;;;10.85;6.20;;;18.40;99.90;;;;;;7391936;19;20007;-90
2022/08/01 00:58:00;;;;;;;5.25;4.32;;;18.30;99.90;;;;;;7395147;19;20018;-90
2022/08/01 01:00:26;;;;;;;13.80;6.78;;;18.30;99.90;;;;;;7393817;19;20066;-91
2022/08/01 01:02:52;;;;;;;11.00;5.68;;;18.30;99.90;;;;;;7393695;19;20022;-90
2022/08/01 01:05:18;;;;;;;8.07;4.30;;;18.30;99.90;;;;;;7396021;19;20014;-89
2022/08/01 01:07:48;;;;;;;5.82;3.58;;;18.40;99.90;;;;;;7396379;19;20018;-91
2022/08/01 01:10:25;;;;;;;7.07;4.00;;;18.40;99.90;;;;;;7397582;19;20018;-91
2022/08/01 01:12:58;;;;;;;6.53;3.83;;;18.40;99.90;;;;;;7393702;19;20018;-90
2022/08/01 01:15:41;;;;;;;6.25;4.30;;;18.30;99.90;;;;;;7395658;19;20019;-91
2022/08/01 01:18:25;;;;;;;5.20;4.10;;;18.30;99.90;;;;;;7404595;19;20034;-90
2022/08/01 01:21:16;;;;;;;7.38;4.60;;;18.30;99.90;;;;;;7395999;19;20022;-92
2022/08/01 01:24:08;;;;;;;9.93;4.28;;;18.20;99.90;;;;;;7392494;19;20534;-91
2022/08/01 01:26:58;;;;;;;8.02;4.50;;;18.20;99.90;;;;;;7391181;19;20040;-92
2022/08/01 01:29:31;;;;;;;10.50;4.80;;;18.20;99.90;;;;;;7395083;19;20044;-91
2022/08/01 01:32:06;;;;;;;7.20;4.32;;;18.20;99.90;;;;;;7393350;19;20021;-92
2022/08/01 01:34:37;;;;;;;7.18;4.75;;;18.20;99.90;;;;;;7393669;19;20014;-91
2022/08/01 01:37:07;;;;;;;7.60;4.25;;;18.10;99.90;;;;;;7395684;19;20029;-91
2022/08/01 01:39:36;;;;;;;6.80;4.35;;;18.10;99.90;;;;;;7393790;19;20026;-91
2022/08/01 01:42:05;;;;;;;7.28;4.50;;;18.10;99.90;;;;;;7391059;19;20038;-92
2022/08/01 01:44:37;;;;;;;11.95;5.22;;;18.10;99.90;;;;;;7393525;19;20014;-90
2022/08/01 01:47:04;;;;;;;6.88;4.57;;;18.00;99.90;;;;;;7395781;19;20050;-90
2022/08/01 01:49:31;;;;;;;8.88;5.15;;;18.00;99.90;;;;;;7392860;19;20542;-90
2022/08/01 01:51:58;;;;;;;9.75;4.90;;;18.00;99.90;;;;;;7395097;19;20044;-90
2022/08/01 01:54:30;;;;;;;10.82;5.68;;;18.00;99.90;;;;;;7399741;19;20014;-90
2022/08/01 01:56:59;;;;;;;7.38;5.40;;;18.00;99.90;;;;;;7402364;19;20380;-91
2022/08/01 01:59:29;;;;;;;9.50;5.35;;;17.90;99.90;;;;;;7399540;19;20014;-91
2022/08/01 02:01:58;;;;;;;8.65;5.40;;;17.90;99.90;;;;;;7401389;19;20014;-90
2022/08/01 02:04:26;;;;;;;9.18;4.50;;;17.90;99.90;;;;;;7399394;19;20010;-89
2022/08/01 02:06:53;;;;;;;9.63;4.65;;;17.90;99.90;;;;;;7398865;19;20018;-91
2022/08/01 02:09:21;;;;;;;7.22;5.10;;;17.90;99.90;;;;;;7397789;19;20041;-92
2022/08/01 02:11:49;;;;;;;7.22;3.92;;;17.90;99.90;;;;;;7402327;19;20052;-90
2022/08/01 02:14:17;;;;;;;8.25;4.82;;;17.90;99.90;;;;;;7400380;19;20032;-91
2022/08/01 02:16:47;;;;;;;7.90;4.60;;;17.90;99.90;;;;;;7400505;19;20022;-90
2022/08/01 02:19:14;;;;;;;10.52;4.70;;;17.90;99.90;;;;;;7399579;19;20018;-90
2022/08/01 02:21:52;;;;;;;8.23;3.92;;;17.90;99.90;;;;;;7397060;19;20401;-90
2022/08/01 02:24:44;;;;;;;8.55;4.22;;;17.90;99.90;;;;;;7400234;19;20030;-91
2022/08/01 02:27:20;;;;;;;11.90;4.13;;;17.90;99.90;;;;;;7399609;19;20544;-90
2022/08/01 02:29:49;;;;;;;11.73;3.65;;;17.80;99.90;;;;;;7399509;19;20014;-89
2022/08/01 02:32:24;;;;;;;10.55;4.03;;;17.90;99.90;;;;;;7398916;19;20010;-90
2022/08/01 02:34:51;;;;;;;9.15;3.58;;;17.80;99.90;;;;;;7398314;19;20026;-89
2022/08/01 02:37:20;;;;;;;13.95;3.42;;;17.80;99.90;;;;;;7400089;19;20015;-91
2022/08/01 02:39:52;;;;;;;12.82;3.00;;;17.80;99.90;;;;;;7399176;19;20042;-90
2022/08/01 02:42:18;;;;;;;13.20;3.20;;;17.90;99.90;;;;;;7398630;19;20483;-91
2022/08/01 02:44:47;;;;;;;9.77;2.72;;;17.80;99.90;;;;;;7399274;19;20369;-91
2022/08/01 02:47:14;;;;;;;8.07;2.70;;;17.70;99.90;;;;;;7400632;19;20014;-91
2022/08/01 02:49:44;;;;;;;8.65;2.72;;;17.70;99.90;;;;;;7399775;19;20038;-90
2022/08/01 02:52:13;;;;;;;8.35;2.90;;;17.70;99.90;;;;;;7399631;19;20018;-91
2022/08/01 02:54:41;;;;;;;10.70;2.63;;;17.60;99.90;;;;;;7397899;19;20106;-90
2022/08/01 02:57:08;;;;;;;13.82;2.65;;;17.60;99.90;;;;;;7399686;19;20018;-90
2022/08/01 02:59:38;;;;;;;9.82;2.40;;;17.60;99.90;;;;;;7398371;19;20021;-90
2022/08/01 03:02:06;;;;;;;8.07;2.35;;;17.60;99.90;;;;;;7400950;19;20006;-90
2022/08/01 03:04:35;;;;;;;8.70;2.50;;;17.50;99.90;;;;;;7396150;19;20018;-90
2022/08/01 03:07:04;;;;;;;11.35;2.60;;;17.50;99.90;;;;;;7397734;19;20011;-91
2022/08/01 03:09:32;;;;;;;11.32;2.60;;;17.50;99.90;;;;;;7399446;19;20046;-90
2022/08/01 03:12:02;;;;;;;9.85;2.42;;;17.50;99.90;;;;;;7402971;19;20013;-89
2022/08/01 03:14:29;;;;;;;11.30;3.25;;;17.50;99.90;;;;;;7400713;19;20015;-90
2022/08/01 03:16:57;;;;;;;10.90;3.10;;;17.50;99.90;;;;;;7396569;19;20006;-90
2022/08/01 03:19:25;;;;;;;15.38;3.10;;;17.40;99.90;;;;;;7400797;19;20082;-91
2022/08/01 03:21:52;;;;;;;11.50;3.42;;;17.40;99.90;;;;;;7395154;19;20388;-90
2022/08/01 03:24:19;;;;;;;13.77;3.50;;;17.50;99.90;;;;;;7399263;19;20010;-91
2022/08/01 03:26:46;;;;;;;13.05;3.30;;;17.50;99.90;;;;;;7394765;19;20021;-90
2022/08/01 03:29:19;;;;;;;18.50;3.65;;;17.40;99.90;;;;;;7395545;19;20014;-88
2022/08/01 03:31:47;;;;;;;13.40;4.15;;;17.30;99.90;;;;;;7399512;19;20014;-91
2022/08/01 03:34:14;;;;;;;18.73;4.78;;;17.30;99.90;;;;;;7397796;19;20006;-90
2022/08/01 03:36:47;;;;;;;16.90;4.38;;;17.20;99.90;;;;;;7399325;19;20348;-91
2022/08/01 03:39:15;;;;;;;18.05;5.00;;;17.20;99.90;;;;;;7400207;19;20029;-91
2022/08/01 03:41:46;;;;;;;17.52;4.03;;;17.20;99.90;;;;;;7396706;19;20033;-91
2022/08/01 03:44:19;;;;;;;16.48;4.32;;;17.10;99.90;;;;;;7396684;19;20044;-92
2022/08/01 03:46:48;;;;;;;13.48;4.30;;;17.10;99.90;;;;;;7393055;19;20479;-91
2022/08/01 03:49:37;;;;;;;16.40;3.72;;;17.10;99.90;;;;;;7397011;19;20018;-92
2022/08/01 03:52:06;;;;;;;12.93;4.15;;;17.20;99.90;;;;;;7398924;19;20025;-90
2022/08/01 03:54:37;;;;;;;10.60;3.55;;;17.20;99.90;;;;;;7395784;19;20010;-90
2022/08/01 03:57:05;;;;;;;14.57;4.40;;;17.10;99.90;;;;;;7396133;19;20018;-90
2022/08/01 03:59:31;;;;;;;13.48;4.63;;;17.20;99.90;;;;;;7398169;19;20367;-90
2022/08/01 04:01:58;;;;;;;14.57;4.80;;;17.20;99.90;;;;;;7399702;19;20026;-91
2022/08/01 04:04:24;;;;;;;12.13;3.38;;;17.20;99.90;;;;;;7395882;19;20511;-91
2022/08/01 04:06:53;;;;;;;12.63;4.53;;;17.10;99.90;;;;;;7394165;19;20384;-90
2022/08/01 04:09:21;;;;;;;14.27;3.92;;;17.10;99.90;;;;;;7399402;19;20007;-89
2022/08/01 04:11:48;;;;;;;11.60;4.00;;;17.10;99.90;;;;;;7398905;19;20028;-92
2022/08/01 04:14:14;;;;;;;10.55;3.55;;;17.10;99.90;;;;;;7396506;19;20032;-90
2022/08/01 04:16:40;;;;;;;11.20;3.13;;;17.10;99.90;;;;;;7395526;19;20038;-90
2022/08/01 04:19:08;;;;;;;12.15;4.07;;;17.10;99.90;;;;;;7394436;19;20014;-90
2022/08/01 04:21:35;;;;;;;14.85;3.83;;;17.10;99.90;;;;;;7393866;19;20014;-91
2022/08/01 04:24:10;;;;;;;13.73;3.15;;;17.10;99.90;;;;;;7399687;19;20106;-91
2022/08/01 04:26:39;;;;;;;14.30;3.53;;;17.20;99.90;;;;;;7393473;19;20019;-91
2022/08/01 04:29:06;;;;;;;15.13;3.50;;;17.00;99.90;;;;;;7395110;19;20022;-90
2022/08/01 04:31:34;;;;;;;14.07;3.17;;;17.10;99.90;;;;;;7395009;19;20487;-91
2022/08/01 04:34:03;;;;;;;14.13;3.30;;;17.00;99.90;;;;;;7399056;19;20018;-92
2022/08/01 04:36:32;;;;;;;12.45;2.85;;;16.90;99.90;;;;;;7398634;19;20501;-92
2022/08/01 04:39:00;;;;;;;11.20;2.80;;;17.00;99.90;;;;;;7398529;19;20361;-90
2022/08/01 04:41:26;;;;;;;17.45;3.22;;;16.90;99.90;;;;;;7394837;19;20363;-91
2022/08/01 04:43:54;;;;;;;11.52;3.33;;;16.90;99.90;;;;;;7395343;19;20010;-90
2022/08/01 04:46:20;;;;;;;13.95;3.20;;;16.90;99.90;;;;;;7396680;19;20033;-90
2022/08/01 04:48:47;;;;;;;14.57;3.05;;;16.90;99.90;;;;;;7394856;19;20017;-91
2022/08/01 04:51:15;;;;;;;15.10;3.40;;;16.80;99.90;;;;;;7395893;19;20491;-91
2022/08/01 04:53:42;;;;;;;15.50;2.83;;;16.80;99.90;;;;;;7393241;19;20014;-90
2022/08/01 04:56:08;;;;;;;19.50;3.17;;;16.80;99.90;;;;;;7394013;19;20014;-91
2022/08/01 04:58:35;;;;;;;19.05;3.50;;;16.70;99.90;;;;;;7397268;19;20018;-91
2022/08/01 05:01:00;;;;;;;14.15;2.92;;;16.70;99.90;;;;;;7398801;19;20364;-92
2022/08/01 05:03:26;;;;;;;21.25;3.55;;;16.60;99.90;;;;;;7394807;19;20007;-92
2022/08/01 05:05:52;;;;;;;20.05;3.60;;;16.60;99.90;;;;;;7391025;19;20014;-92
2022/08/01 05:08:18;;;;;;;20.60;3.20;;;16.60;99.90;;;;;;7396114;19;20707;-92
2022/08/01 05:10:44;;;;;;;16.88;3.33;;;16.60;99.90;;;;;;7392862;19;20040;-91
2022/08/01 05:13:10;;;;;;;16.25;3.13;;;16.70;99.90;;;;;;7397069;19;20022;-91
2022/08/01 05:15:36;;;;;;;16.15;3.20;;;16.70;99.90;;;;;;7394347;19;20021;-91
2022/08/01 05:18:02;;;;;;;21.13;3.30;;;16.70;99.90;;;;;;7395960;19;20289;-92
2022/08/01 05:20:28;;;;;;;16.65;3.17;;;16.90;99.90;;;;;;7392089;19;20029;-92
2022/08/01 05:22:54;;;;;;;18.10;3.67;;;17.00;99.90;;;;;;7395212;19;20467;-92
2022/08/01 05:25:20;;;;;;;21.48;3.67;;;17.00;99.90;;;;;;7392360;19;20017;-91
2022/08/01 05:27:45;;;;;;;21.63;3.75;;;17.10;99.90;;;;;;7398596;19;20078;-92
2022/08/01 05:30:11;;;;;;;19.63;3.50;;;17.10;99.90;;;;;;7407343;19;20031;-92
2022/08/01 05:32:38;;;;;;;21.45;3.67;;;17.20;99.90;;;;;;7410890;19;20034;-92
2022/08/01 05:35:04;;;;;;;22.15;3.60;;;17.20;99.90;;;;;;7409483;19;20022;-92
2022/08/01 05:37:30;;;;;;;21.52;3.53;;;17.30;99.90;;;;;;7406068;19;20027;-91
2022/08/01 05:39:56;;;;;;;23.13;3.75;;;17.30;99.90;;;;;;7407484;19;20014;-92
2022/08/01 05:42:21;;;;;;;18.88;3.15;;;17.30;99.90;;;;;;7405535;19;20087;-92
2022/08/01 05:44:47;;;;;;;24.38;4.28;;;17.40;99.90;;;;;;7406649;19;20014;-92
2022/08/01 05:47:13;;;;;;;18.90;3.63;;;17.50;99.90;;;;;;7406980;19;20502;-92
2022/08/01 05:49:39;;;;;;;20.13;3.33;;;17.60;99.90;;;;;;7408339;19;20487;-92
2022/08/01 05:52:05;;;;;;;19.33;3.70;;;17.60;99.90;;;;;;7408385;19;20010;-92
2022/08/01 05:54:31;;;;;;;22.73;3.92;;;17.60;99.90;;;;;;7406430;19;20021;-91
2022/08/01 05:57:01;;;;;;;16.10;3.65;;;17.70;99.90;;;;;;7408436;19;20015;-91
2022/08/01 05:59:28;;;;;;;18.15;3.65;;;17.70;99.90;;;;;;7408535;19;20017;-91
2022/08/01 06:01:54;;;;;;;15.57;3.55;;;17.70;99.90;;;;;;7410918;19;20021;-92
2022/08/01 06:04:22;;;;;;;15.48;3.45;;;17.80;99.90;;;;;;7406991;19;20093;-92
2022/08/01 06:06:48;;;;;;;18.05;3.65;;;17.80;99.90;;;;;;7407364;19;20022;-91
2022/08/01 06:09:14;;;;;;;24.73;4.13;;;17.80;99.90;;;;;;7407290;19;20025;-87
2022/08/01 06:11:40;;;;;;;18.63;3.70;;;17.70;99.90;;;;;;7407544;19;20049;-88
2022/08/01 06:14:06;;;;;;;18.48;3.65;;;17.60;99.90;;;;;;7407537;19;20404;-86
2022/08/01 06:16:31;;;;;;;20.95;3.83;;;17.50;99.90;;;;;;7406247;19;20010;-88
2022/08/01 06:18:57;;;;;;;18.52;4.20;;;17.40;99.90;;;;;;7407659;19;20029;-86
2022/08/01 06:21:24;;;;;;;13.23;3.47;;;17.30;99.90;;;;;;7405380;19;20092;-90
2022/08/01 06:23:49;;;;;;;15.65;3.22;;;17.20;99.90;;;;;;7408732;19;20018;-85
2022/08/01 06:26:19;;;;;;;18.15;4.13;;;17.20;99.90;;;;;;7404129;19;20015;-85
2022/08/01 06:28:44;;;;;;;23.25;3.97;;;17.10;99.90;;;;;;7409645;19;20078;-86
2022/08/01 06:31:12;;;;;;;21.48;4.00;;;17.10;99.90;;;;;;7402942;19;20048;-86
2022/08/01 06:33:38;;;;;;;21.38;3.90;;;17.10;99.90;;;;;;7406291;19;20010;-85
2022/08/01 06:36:04;;;;;;;17.63;3.47;;;17.10;99.90;;;;;;7402221;19;20024;-85
2022/08/01 06:38:30;;;;;;;17.52;3.78;;;17.10;99.90;;;;;;7405541;19;20021;-84
2022/08/01 06:40:56;;;;;;;20.80;4.28;;;17.00;99.90;;;;;;7398200;19;20023;-86
2022/08/01 06:43:21;;;;;;;19.83;3.33;;;17.00;99.90;;;;;;7399888;19;20018;-84
2022/08/01 06:45:49;;;;;;;20.95;3.90;;;17.00;99.90;;;;;;7395181;19;20537;-85
2022/08/01 06:48:15;;;;;;;16.10;3.30;;;17.00;99.90;;;;;;7398056;19;20052;-86
2022/08/01 06:50:41;;;;;;;19.42;3.22;;;17.00;99.90;;;;;;7398859;19;20077;-85
2022/08/01 06:53:07;;;;;;;17.63;3.60;;;17.00;99.90;;;;;;7398574;19;20013;-85
2022/08/01 06:55:33;;;;;;;17.85;3.45;;;17.00;99.90;;;;;;7395844;19;20018;-84
2022/08/01 06:57:59;;;;;;;23.08;4.13;;;17.00;99.90;;;;;;7397716;19;20015;-86
2022/08/01 07:00:26;;;;;;;17.25;3.40;;;16.90;99.90;;;;;;7397734;19;20014;-86
2022/08/01 07:02:55;;;;;;;18.70;3.28;;;17.00;99.90;;;;;;7399391;19;20042;-84
2022/08/01 07:05:22;;;;;;;21.92;4.05;;;17.00;99.90;;;;;;7396304;19;20018;-86
2022/08/01 07:07:47;;;;;;;17.45;3.45;;;17.10;99.90;;;;;;7394860;19;20035;-86
2022/08/01 07:10:14;;;;;;;20.13;3.80;;;17.10;99.90;;;;;;7391254;19;20030;-85
2022/08/01 07:12:40;;;;;;;16.55;3.20;;;17.10;99.90;;;;;;7391525;19;20030;-86
2022/08/01 07:15:11;;;;;;;22.48;4.32;;;17.20;99.90;;;;;;7397005;19;20022;-86
2022/08/01 07:17:41;;;;;;;19.83;3.08;;;17.20;99.90;;;;;;7400286;19;20007;-85
2022/08/01 07:20:11;;;;;;;14.85;3.40;;;17.20;99.90;;;;;;7397748;19;20545;-86
2022/08/01 07:22:38;;;;;;;21.77;3.95;;;17.20;99.90;;;;;;7396721;19;20011;-85
2022/08/01 07:25:07;;;;;;;16.27;3.38;;;17.20;99.90;;;;;;7397432;19;20035;-85
2022/08/01 07:27:33;;;;;;;20.73;3.15;;;17.20;99.90;;;;;;7397570;19;20041;-86
2022/08/01 07:29:59;;;;;;;14.43;3.33;;;17.30;99.90;;;;;;7399666;19;20022;-86
2022/08/01 07:32:25;;;;;;;19.58;3.17;;;17.30;99.90;;;;;;7396285;19;20014;-86
2022/08/01 07:34:51;;;;;;;17.05;2.90;;;17.30;99.90;;;;;;7397326;19;20022;-87
2022/08/01 07:37:17;;;;;;;22.77;3.38;;;17.30;99.90;;;;;;7392438;19;20028;-85
2022/08/01 07:39:43;;;;;;;18.20;3.97;;;17.30;99.90;;;;;;7395983;19;20022;-85
2022/08/01 07:42:09;;;;;;;17.42;3.22;;;17.30;99.90;;;;;;7395529;19;20011;-85
2022/08/01 07:44:36;;;;;;;19.17;3.80;;;17.40;99.90;;;;;;7396182;19;20372;-84
2022/08/01 07:47:02;;;;;;;18.20;3.08;;;17.40;99.90;;;;;;7392235;19;20127;-86
2022/08/01 07:49:28;;;;;;;17.92;4.05;;;17.50;99.90;;;;;;7393643;19;20034;-87
2022/08/01 07:51:55;;;;;;;15.20;4.28;;;17.50;99.90;;;;;;7399496;19;20022;-87
2022/08/01 07:54:23;;;;;;;12.63;3.88;;;17.50;99.90;;;;;;7397088;19;20499;-86
2022/08/01 07:56:50;;;;;;;11.93;3.00;;;17.50;99.90;;;;;;7395716;19;20018;-85
2022/08/01 07:59:16;;;;;;;18.33;3.05;;;17.60;99.90;;;;;;7394380;19;20019;-86
2022/08/01 08:01:43;;;;;;;15.85;4.50;;;17.60;99.90;;;;;;7397102;19;20014;-86
2022/08/01 08:04:09;;;;;;;16.92;4.70;;;17.70;99.90;;;;;;7398060;19;20018;-87
2022/08/01 08:06:34;;;;;;;13.65;2.78;;;17.70;99.90;;;;;;7394249;19;20019;-85
2022/08/01 08:09:00;;;;;;;12.60;3.00;;;17.70;99.90;;;;;;7399542;19;20069;-85
2022/08/01 08:11:26;;;;;;;15.27;3.42;;;17.80;99.90;;;;;;7395389;19;20021;-86
2022/08/01 08:13:52;;;;;;;14.65;2.72;;;18.00;99.90;;;;;;7395895;19;20015;-86
2022/08/01 08:16:18;;;;;;;13.13;3.15;;;18.10;99.90;;;;;;7397371;19;20021;-86
2022/08/01 08:18:44;;;;;;;11.20;2.47;;;18.00;99.90;;;;;;7395067;19;20104;-86
2022/08/01 08:21:09;;;;;;;15.63;3.03;;;18.10;99.90;;;;;;7395264;19;20382;-86
2022/08/01 08:26:19;;;;;;;11.85;2.63;;;18.80;99.90;;;;;;7394725;19;20060;-86
2022/08/01 08:28:46;;;;;;;13.85;2.35;;;19.00;99.90;;;;;;7395769;19;20062;-85
2022/08/01 08:31:11;;;;;;;13.65;2.53;;;19.00;99.90;;;;;;7398966;19;20384;-85
2022/08/01 08:33:38;;;;;;;16.80;3.10;;;19.20;99.90;;;;;;7396202;19;20025;-86
2022/08/01 08:36:04;;;;;;;18.25;3.03;;;19.10;99.90;;;;;;7396223;19;20010;-85
2022/08/01 08:38:29;;;;;;;18.35;2.78;;;19.20;99.90;;;;;;7396430;19;20415;-86
2022/08/01 08:40:59;;;;;;;13.23;2.42;;;19.20;99.90;;;;;;7396276;19;20018;-86
2022/08/01 08:43:25;;;;;;;14.25;4.03;;;19.60;99.90;;;;;;7395632;19;20106;-86
2022/08/01 08:45:52;;;;;;;13.32;2.33;;;19.80;99.90;;;;;;7391713;19;20035;-85
2022/08/01 08:48:18;;;;;;;12.77;3.05;;;20.00;99.90;;;;;;7392536;19;20020;-86
2022/08/01 08:50:47;;;;;;;15.20;2.60;;;20.00;99.90;;;;;;7393420;19;20014;-86
2022/08/01 08:53:13;;;;;;;13.65;2.50;;;19.80;99.90;;;;;;7395577;19;20015;-86
2022/08/01 08:55:42;;;;;;;15.23;2.88;;;19.50;99.90;;;;;;7393934;19;20039;-86
2022/08/01 08:58:12;;;;;;;13.40;2.00;;;19.60;99.90;;;;;;7393716;19;20309;-85
2022/08/01 09:00:41;;;;;;;15.73;2.65;;;19.60;99.90;;;;;;7393285;19;20492;-85
2022/08/01 09:03:08;;;;;;;11.02;2.80;;;19.50;99.90;;;;;;7393769;19;20031;-86
2022/08/01 09:05:34;;;;;;;12.23;2.10;;;19.40;99.90;;;;;;7391409;19;20011;-84
2022/08/01 09:08:07;;;;;;;12.73;2.58;;;19.30;99.90;;;;;;7394281;19;20022;-85
2022/08/01 09:10:33;;;;;;;16.23;3.33;;;19.20;99.90;;;;;;7391398;19;20006;-85
2022/08/01 09:13:05;;;;;;;11.70;2.97;;;19.10;99.90;;;;;;7391481;19;20023;-85
2022/08/01 09:15:38;;;;;;;10.00;2.53;;;19.30;99.90;;;;;;7394802;19;20014;-85
2022/08/01 09:18:04;;;;;;;;;;;19.40;99.90;;;;;;7392542;19;20006;-85
2022/08/01 09:20:30;;;;;;;10.30;2.40;;;19.40;99.90;;;;;;7396638;19;19926;-85
2022/08/01 09:22:56;;;;;;;11.23;2.03;;;19.60;99.90;;;;;;7393479;19;20007;-85
2022/08/01 09:25:22;;;;;;;12.18;2.30;;;19.70;99.90;;;;;;7393556;19;20014;-85
2022/08/01 09:27:47;;;;;;;8.38;2.00;;;19.70;99.90;;;;;;7390750;19;20036;-85
2022/08/01 09:30:17;;;;;;;13.90;2.30;;;19.60;99.90;;;;;;7393200;19;20472;-86
2022/08/01 09:32:56;;;;;;;12.82;2.10;;;19.70;99.90;;;;;;7394323;19;20702;-85
2022/08/01 09:35:29;;;;;;;7.03;1.90;;;19.80;99.90;;;;;;7393437;19;20082;-85
2022/08/01 09:38:17;;;;;;;11.68;2.20;;;19.90;99.90;;;;;;7393449;19;20018;-85
2022/08/01 09:40:57;;;;;;;8.77;1.80;;;20.00;99.90;;;;;;7394377;19;20027;-86
2022/08/01 09:43:29;;;;;;;12.45;2.28;;;20.00;99.90;;;;;;7394088;19;20389;-85
2022/08/01 09:45:59;;;;;;;10.23;2.22;;;19.90;99.90;;;;;;7392220;19;20018;-86
2022/08/01 09:48:26;;;;;;;9.13;2.10;;;20.00;99.90;;;;;;7393799;19;20010;-85
2022/08/01 09:50:53;;;;;;;14.40;2.15;;;20.20;99.90;;;;;;7394503;19;20011;-83
2022/08/01 09:53:19;;;;;;;8.90;2.05;;;20.30;99.90;;;;;;7392524;19;20070;-85
2022/08/01 09:55:45;;;;;;;9.82;2.15;;;20.20;99.90;;;;;;7388842;19;20011;-85
2022/08/01 09:58:12;;;;;;;12.65;2.22;;;20.10;99.90;;;;;;7391897;19;20014;-88
2022/08/01 10:00:39;;;;;;;10.02;1.90;;;20.10;99.90;;;;;;7396377;19;20019;-91
2022/08/01 10:03:21;;;;;;;7.13;1.73;;;20.20;99.90;;;;;;7393482;19;20047;-90
2022/08/01 10:05:48;;;;;;;9.88;2.42;;;20.30;99.90;;;;;;7395412;19;20018;-93
2022/08/01 10:08:14;;;;;;;8.68;2.25;;;20.50;99.90;;;;;;7393694;19;20018;-93
2022/08/01 10:10:40;;;;;;;9.27;1.90;;;20.60;99.90;;;;;;7394281;19;20492;-90
2022/08/01 10:13:08;;;;;;;10.30;2.50;;;20.70;99.90;;;;;;7389341;19;20015;-86
2022/08/01 10:15:35;;;;;;;7.10;1.63;;;20.80;99.90;;;;;;7398284;19;20085;-91
2022/08/01 10:18:05;;;;;;;8.30;1.90;;;20.80;99.90;;;;;;7402083;19;20491;-93
2022/08/01 10:20:32;;;;;;;9.43;1.65;;;20.80;99.90;;;;;;7397590;19;20025;-92
2022/08/01 10:23:03;;;;;;;15.20;8.52;;;20.70;99.90;;;;;;7398936;19;20035;-91
2022/08/01 10:25:34;;;;;;;8.07;1.40;;;20.90;99.90;;;;;;7395120;19;20021;-91
2022/08/01 10:28:05;;;;;;;8.32;1.80;;;20.80;99.90;;;;;;7397961;19;20015;-91
2022/08/01 10:30:30;;;;;;;10.93;1.80;;;21.00;99.90;;;;;;7397275;19;20049;-89
2022/08/01 10:32:56;;;;;;;6.30;1.50;;;21.10;99.90;;;;;;7398570;19;20017;-89
2022/08/01 10:35:22;;;;;;;7.30;1.75;;;21.20;99.90;;;;;;7402788;19;20048;-89
2022/08/01 10:37:50;;;;;;;8.43;1.50;;;21.20;99.90;;;;;;7397408;19;20086;-89
2022/08/01 10:40:16;;;;;;;8.77;1.40;;;21.30;99.90;;;;;;7402297;19;20065;-91
2022/08/01 10:42:44;;;;;;;8.15;1.35;;;21.10;99.90;;;;;;7398782;19;20511;-89
2022/08/01 10:45:15;;;;;;;7.40;1.92;;;21.00;99.90;;;;;;7400577;19;20022;-88
2022/08/01 10:48:07;;;;;;;8.23;1.80;;;20.90;99.90;;;;;;7398703;19;20011;-91
2022/08/01 10:50:41;;;;;;;6.45;1.50;;;20.90;99.90;;;;;;7397504;19;20011;-92
2022/08/01 10:53:17;;;;;;;7.20;1.45;;;20.60;99.90;;;;;;7398357;19;20010;-89
2022/08/01 10:55:55;;;;;;;7.07;1.38;;;20.60;99.90;;;;;;7398190;19;20010;-86
2022/08/01 10:58:38;;;;;;;6.35;1.50;;;20.50;99.90;;;;;;7400966;19;20082;-88
2022/08/01 11:01:29;;;;;;;7.18;1.60;;;20.50;99.90;;;;;;7397536;19;20021;-90
2022/08/01 11:04:14;;;;;;;9.05;1.80;;;20.70;99.90;;;;;;7398748;19;20070;-89
2022/08/01 11:07:03;;;;;;;8.18;1.45;;;20.70;99.90;;;;;;7396635;19;20018;-90
2022/08/01 11:09:44;;;;;;;11.68;1.80;;;20.70;99.90;;;;;;7397090;19;20416;-89
2022/08/01 11:12:16;;;;;;;9.80;1.70;;;20.60;99.90;;;;;;7399346;19;20033;-89
2022/08/01 11:14:58;;;;;;;9.90;1.50;;;20.80;99.90;;;;;;7399468;19;20090;-90
2022/08/01 11:17:47;;;;;;;7.63;1.30;;;21.00;99.90;;;;;;7401345;19;20074;-90
2022/08/01 11:20:29;;;;;;;6.05;1.20;;;21.00;99.90;;;;;;7399237;19;20022;-89
2022/08/01 11:23:01;;;;;;;8.02;1.23;;;21.10;99.90;;;;;;7401494;19;20019;-91
2022/08/01 11:25:40;;;;;;;10.00;1.50;;;20.90;99.90;;;;;;7393552;19;20014;-89
2022/08/01 11:28:18;;;;;;;9.38;2.00;;;20.80;99.90;;;;;;7396681;19;20018;-90
2022/08/01 11:30:49;;;;;;;9.35;2.10;;;20.80;99.90;;;;;;7397409;19;20014;-88
2022/08/01 11:33:17;;;;;;;9.20;1.73;;;20.70;99.90;;;;;;7398226;19;20037;-89
2022/08/01 11:36:15;;;;;;;7.80;1.67;;;20.60;99.90;;;;;;7400306;19;20018;-90
2022/08/01 11:38:44;;;;;;;11.65;2.15;;;20.70;99.90;;;;;;7396946;19;20672;-88
2022/08/01 11:41:29;;;;;;;5.57;1.45;;;20.80;99.90;;;;;;7398262;19;20021;-90
2022/08/01 11:44:10;;;;;;;10.02;2.10;;;20.90;99.90;;;;;;7397465;19;20037;-90
2022/08/01 11:46:59;;;;;;;10.85;1.90;;;21.00;99.90;;;;;;7393816;19;20019;-89
2022/08/01 11:49:32;;;;;;;8.80;1.63;;;21.10;99.90;;;;;;7396653;19;20011;-89
2022/08/01 11:52:22;;;;;;;;;;;21.20;99.90;;;;;;7395442;19;21161;-90
2022/08/01 11:54:52;;;;;;;8.18;1.67;;;21.20;99.90;;;;;;7394742;19;19918;-90
2022/08/01 11:57:26;;;;;;;7.82;1.80;;;21.10;99.90;;;;;;7397458;19;20022;-90
2022/08/01 11:59:55;;;;;;;9.10;2.10;;;21.20;99.90;;;;;;7396900;19;20505;-90
2022/08/01 12:02:32;;;;;;;11.23;2.15;;;21.50;99.90;;;;;;7394589;19;20025;-89
2022/08/01 12:05:05;;;;;;;11.02;1.92;;;21.30;99.90;;;;;;7394961;19;20014;-89
2022/08/01 12:07:35;;;;;;;7.60;1.40;;;21.30;99.90;;;;;;7397863;19;20023;-90
2022/08/01 12:10:05;;;;;;;9.63;1.98;;;21.40;99.90;;;;;;7397301;19;20508;-90
2022/08/01 12:12:32;;;;;;;8.93;1.70;;;21.30;99.90;;;;;;7396973;19;20014;-90
2022/08/01 12:15:00;;;;;;;6.28;1.27;;;21.30;99.90;;;;;;7394816;19;20014;-91
2022/08/01 12:18:00;;;;;;;9.30;1.58;;;21.30;99.90;;;;;;7395996;19;20018;-89
2022/08/01 12:20:34;;;;;;;7.43;1.67;;;21.40;99.90;;;;;;7392675;19;20007;-91
2022/08/01 12:23:05;;;;;;;8.15;1.80;;;21.40;99.90;;;;;;7397850;19;20018;-90
2022/08/01 12:25:31;;;;;;;6.30;1.50;;;21.10;99.80;;;;;;7393243;19;20349;-90
2022/08/01 12:28:04;;;;;;;11.57;2.00;;;20.90;99.90;;;;;;7394525;19;20040;-88
2022/08/01 12:30:34;;;;;;;9.75;1.50;;;21.00;99.90;;;;;;7395170;19;20100;-91
2022/08/01 12:33:05;;;;;;;9.93;2.05;;;21.00;99.90;;;;;;7393899;19;20050;-89
2022/08/01 12:35:32;;;;;;;6.95;1.55;;;20.90;99.90;;;;;;7392016;19;20018;-89
2022/08/01 12:38:04;;;;;;;8.15;1.30;;;20.90;99.90;;;;;;7390555;19;20013;-92
2022/08/01 12:40:35;;;;;;;7.25;2.00;;;21.10;99.90;;;;;;7398461;19;20021;-91
2022/08/01 12:43:06;;;;;;;8.48;2.05;;;21.10;99.90;;;;;;7394834;19;20018;-91
2022/08/01 12:45:37;;;;;;;7.25;1.58;;;21.30;99.90;;;;;;7396655;19;20041;-88
2022/08/01 12:48:08;;;;;;;8.63;1.25;;;21.40;99.20;;;;;;7400125;19;20011;-90
2022/08/01 12:50:36;;;;;;;4.45;1.20;;;21.40;98.30;;;;;;7396900;19;20022;-90
2022/08/01 12:53:02;;;;;;;8.48;1.80;;;21.30;99.20;;;;;;7394933;19;20010;-90
2022/08/01 12:55:28;;;;;;;12.32;1.73;;;21.20;98.60;;;;;;7393655;19;20018;-91